King Salmon, AK

8:08 PM AKDT on September 04, 2015 (GMT -0800)
Chignik | | Change Station
CLOSE
Current Station
Airport
Location: Chignik,
Elevation: 16 ft
Nearby Weather Stations

Elev 16 ft 56.31 °N, 158.37 °W | Updated 1 hour ago

Clear
Clear
57 °F
Feels Like 57 °F
N
15
Wind Variable Wind from SSW

Today
High -- | Low -- °F
--% Chance of Precip.
Yesterday
High -- | Low -- °F
Precip. -- in
7:42 AM 9:22 PM
Waning Gibbous, 53% visible
Pressure 30.00 in
Visibility -9999.0 miles
Clouds Clear
Dew Point 47 °F
Humidity 69%
Rainfall 0.00 in
Snow Depth Not available.
UV 1 out of 12
Pollen Not available.
Air Quality Not available.
Flu Activity Not available.
METAR PAJC 050306Z AUTO 21013KT CLR 14/08 A3000 RMK AO2 SLPNO 6//// T01390083 51010 PWINO $
Pressure 30.00 in
Visibility -9999.0 miles
Clouds Clear
Dew Point 47 °F
Humidity 69%
Rainfall 0.00 in
Snow Depth Not available.
UV 1 out of 12
Pollen Not available.
Air Quality Not available.
Flu Activity Not available.
METAR PAJC 050306Z AUTO 21013KT CLR 14/08 A3000 RMK AO2 SLPNO 6//// T01390083 51010 PWINO $

10-Day Weather Forecast

×

Almanac

Astronomy

Sep. 04, 2015 Rise Set
Actual Time
Civil Twilight
Nautical Twilight
Astronomical Twilight
Moon
Length of Visible Light
Length of Day
Tomorrow will be .
, % of the Moon is Illuminated

Today's Extremes

State Highs State Lows

Community

WunderPhotos

Upload Photos

1,852,418 photos uploaded!

WunderBlogs® & News

Nearby

Air Quality

  Air Quality AQ Index Pollutant
Not available.

Snow Depth

Station Depth Elevation

Earthquake Activity

City Distance Mag. Time & Date
Minimum magnitude displayed is 2.5.

Coastal Water Temperatures

Place Temperature

Stations

Nearby Weather Stations

Station Location Temp. Windchill Dew Point Humidity Wind Precip. Elev Updated Type